Terminal Aerodrome Forecast
Issued by NWS Atlanta, GA

Home | Current Version | Previous Version | Text Only | Print | Product List | Glossary On
Versions: 1 2 3 4 5 6 7 8 9 10 11 12 13 14 15 16 17 18 19 20 21 22 23 24 25 26 27 28 29 30 31
000
FTAK31 PAJN 262000 AAA
TAFAHN
TAF AMD
PAHN 262029Z 2620/2718 07012G20KT 6SM -SHRA BR BKN015 OVC035
     FM262200 10008G15KT P6SM VCSH SCT015 OVC025
     FM270200 11007KT 6SM -SHRA BR OVC030
     FM270500 11008KT P6SM -SHRA OVC025
     FM271100 10008KT P6SM VCSH OVC025
      AMD LTD TO CLD VIS AND WIND=

USA.gov is the U.S. government's official web portal to all federal, state and local government web resources and services.